Lacassine, Louisiana
Current Conditions -  °F | °C
As of 5:50 PM on Wednesday 26 Nov 2014 (Local Time) from KCWF Reporting Station
Clear Clear  
Wind Chill: 61°   Ceiling: Unl
Heat Index: 61°   Visibility: 10mi
Dew Point: 46°   Wind: 8mph
Humidity: 59%   Direction: 220°SW
Pressure: 30.21"   Gusts: NA
Location:  30.24°N, 92.92°W
Report Text: KCWF 262350Z 22007KT 10SM SKC 16/08 A3021
Loading
Personal Weather Stations






























Interactive Weather Map New forecast layout! Learn more

10-Day Weather Forecast

Advertisements
Track Severe Weather on mobile